Impacts METAR Board
IDs:

KBOS - Boston/Logan Intl, MA, US

Updated at: 2000 UTC 22 Apr 2018
Potential Impact None Slight Moderate High
Time 22/08Z 22/09Z 22/10Z 22/11Z 22/12Z 22/13Z 22/14Z 22/15Z 22/16Z 22/17Z 22/18Z 22/19Z 22/20Z
Temp44 43 43 44 47 50 53 54 56 57 59 61 54
Dewpt21 21 21 20 19 20 20 17 17 16 16 14 29
Altim30.32 30.32 30.33 30.34 30.35 30.35 30.35 30.35 30.34 30.33 30.32 30.30 30.30
VIS10 10 10 10 10 10 10 10 10 10 10 10 10
CIG-- -- -- -- -- -- -- -- -- -- -- -- --
CoverCLRCLRCLRCLRCLRCLRFEWCLRCLRCLRCLRCLRCLR
FltCatVFRVFRVFRVFRVFRVFRVFRVFRVFRVFRVFRVFRVFR
WX--------------------------
WDir29029029030031030028030028032026010110
WSpd8 8 9 9 8 10 11 10 14 8 11 9 11
WGst-- -- -- -- -- -- -- 16 20 17 15 19 --
Raw hourly METARs
KBOS 220754Z 29008KT 10SM CLR 07/M06 A3032 RMK AO2 SLP267 T00671061
KBOS 220854Z 29008KT 10SM CLR 06/M06 A3032 RMK AO2 SLP266 T00611061 50000
KBOS 220954Z 29009KT 10SM CLR 06/M06 A3033 RMK AO2 SLP269 T00611061
KBOS 221054Z 30009KT 10SM CLR 07/M07 A3034 RMK AO2 SLP275 T00671067
KBOS 221154Z 31008KT 10SM CLR 08/M07 A3035 RMK AO2 SLP276 T00831072 10083 20056 51010
KBOS 221254Z 30010KT 10SM CLR 10/M07 A3035 RMK AO2 SLP277 T01001067
KBOS 221354Z 28011KT 10SM FEW040 12/M07 A3035 RMK AO2 SLP278 T01171067
KBOS 221454Z 30010G16KT 10SM CLR 12/M08 A3035 RMK AO2 SLP276 T01221083 58000
KBOS 221554Z 28014G20KT 10SM CLR 13/M08 A3034 RMK AO2 SLP273 T01331083
KBOS 221654Z 32008G17KT 10SM CLR 14/M09 A3033 RMK AO2 SLP270 T01391089
KBOS 221754Z 26011G15KT 10SM CLR 15/M09 A3032 RMK AO2 SLP266 T01501089 10156 20083 58010
KBOS 221854Z 01009G19KT 10SM CLR 16/M10 A3030 RMK AO2 SLP259 T01611100
KBOS 221954Z 11011KT 10SM CLR 12/M02 A3030 RMK AO2 SLP259 T01221017



Page loaded:  20:11 UTC  |   01:11 PM Pacific  |   02:11 PM Mountain  |   03:11 PM Central  |   04:11 PM Eastern

 

ADVISORIES

FORECASTS

FORECASTS

OBSERVATIONS

USER TOOLS

ABOUT US